»·PEaware :: N22AB KVNY-KSNA

N22AB :: KVNY-KSNA

FLIGHT INFORMATION

Flight Status: Arrived
Operator: Privately registered:
United States
More flights under this callsign
Pilot: Andrew B. (6114)
Aircraft: CESSNA 172 SKYHAWK
(C172)
More flights by this aircraft type
Origin: KVNY Van Nuys
United States
Destination: KSNA John Wayne-Orange Co
United States
More flights between these airports :: More routes between these airports
Route: +LAX323013 LAX LAX123015
File this flight plan on PilotEdge
Remarks: CAT 10
Altitude:
(Current/Filed)
35ft
Speed:
(Current/Filed)
105kts
Departed: 01-Jan-18 09:53 PM
Arrived: 01-Jan-18 10:56 PM
Distance/Time
Traveled:
44nm/1:03
Distance/Time
To Go:
Arrived

Flight Plot

Page will automatically refresh every two minutes.

Flight plan parsing failed; only flown route is shown


Map Options




Map Legend


Flown Route
Filed Route
Departure Airport
Arrival Airport
Navaid (VOR, NDB)
Fix

Horizontal Profiles

Position Reports

Time Latitude Longitude Heading Altitude Ground
Speed
01-Jan-18 21:47 34.210592 -118.492031 77 805ft 0kts
01-Jan-18 21:48 34.210592 -118.492030 77 805ft 0kts
01-Jan-18 21:49 34.210592 -118.492029 77 805ft 0kts
01-Jan-18 21:50 34.210592 -118.492028 77 805ft 0kts
01-Jan-18 21:51 34.210593 -118.492027 77 805ft 0kts
01-Jan-18 21:52 34.210593 -118.492026 77 805ft 0kts
01-Jan-18 21:53 34.210593 -118.492024 77 805ft 0kts
01-Jan-18 21:54 34.212049 -118.491856 357 805ft 12kts
01-Jan-18 21:55 34.215511 -118.492208 352 805ft 12kts
01-Jan-18 21:56 34.218731 -118.492283 79 805ft 10kts
01-Jan-18 21:57 34.218753 -118.492059 82 805ft 0kts
01-Jan-18 21:58 34.218753 -118.492058 82 805ft 0kts
01-Jan-18 21:59 34.216795 -118.491033 176 805ft 47kts
01-Jan-18 22:00 34.196515 -118.489076 177 1506ft 77kts
01-Jan-18 22:01 34.175671 -118.501310 204 2210ft 89kts
01-Jan-18 22:02 34.153703 -118.513055 204 3050ft 85kts
01-Jan-18 22:03 34.131948 -118.524912 204 3922ft 85kts
01-Jan-18 22:10 34.217606 -118.492660 99 805ft 0kts
01-Jan-18 22:11 34.217606 -118.492659 99 805ft 0kts
01-Jan-18 22:12 34.217606 -118.492658 99 805ft 0kts
01-Jan-18 22:13 34.217606 -118.492656 99 805ft 0kts
01-Jan-18 22:14 34.217606 -118.492655 99 805ft 0kts
01-Jan-18 22:15 34.217605 -118.492654 99 805ft 0kts
01-Jan-18 22:16 34.217605 -118.492653 99 805ft 0kts
01-Jan-18 22:17 34.217605 -118.492652 99 805ft 0kts
01-Jan-18 22:18 34.217651 -118.492434 49 805ft 10kts
01-Jan-18 22:19 34.218749 -118.492055 89 805ft 0kts
01-Jan-18 22:20 34.218749 -118.492054 89 805ft 0kts
01-Jan-18 22:21 34.217237 -118.491088 173 805ft 34kts
01-Jan-18 22:22 34.199138 -118.489132 179 1483ft 70kts
01-Jan-18 22:23 34.179295 -118.503431 211 1894ft 110kts
01-Jan-18 22:24 34.154271 -118.518239 204 2599ft 95kts
01-Jan-18 22:25 34.130044 -118.531937 204 3447ft 96kts
01-Jan-18 22:26 34.105370 -118.540312 180 4337ft 94kts
01-Jan-18 22:27 34.078978 -118.537782 168 4797ft 99kts
01-Jan-18 22:28 34.048237 -118.526035 126 4698ft 121kts
01-Jan-18 22:29 34.026112 -118.495948 107 4730ft 120kts
01-Jan-18 22:30 34.051649 -118.485948 337 4423ft 131kts
01-Jan-18 22:31 34.083670 -118.497803 332 4520ft 116kts
01-Jan-18 22:32 34.106955 -118.522407 309 4910ft 100kts
01-Jan-18 22:33 34.122375 -118.550610 301 5283ft 98kts
01-Jan-18 22:34 34.128541 -118.580685 209 5486ft 110kts
01-Jan-18 22:35 34.107024 -118.559882 133 5511ft 109kts
01-Jan-18 22:36 34.080422 -118.539215 153 5477ft 117kts
01-Jan-18 22:37 34.051671 -118.522207 148 5513ft 117kts
01-Jan-18 22:38 34.029365 -118.494337 106 5498ft 120kts
01-Jan-18 22:39 34.006859 -118.466515 156 5469ft 119kts
01-Jan-18 22:40 33.976641 -118.453239 155 5492ft 114kts
01-Jan-18 22:41 33.947357 -118.438915 156 5496ft 113kts
01-Jan-18 22:42 33.918087 -118.424632 155 5502ft 113kts
01-Jan-18 22:43 33.888500 -118.409889 155 5495ft 115kts
01-Jan-18 22:44 33.869919 -118.382222 110 5529ft 116kts
01-Jan-18 22:45 33.855157 -118.346187 132 5481ft 120kts
01-Jan-18 22:46 33.830074 -118.320049 138 5463ft 117kts
01-Jan-18 22:47 33.806253 -118.294974 136 5475ft 113kts
01-Jan-18 22:48 33.782922 -118.269602 136 5475ft 112kts
01-Jan-18 22:49 33.759724 -118.244300 133 5477ft 112kts
01-Jan-18 22:50 33.757942 -118.207912 93 5482ft 112kts
01-Jan-18 22:51 33.751249 -118.171292 105 5467ft 113kts
01-Jan-18 22:52 33.742252 -118.134352 101 4990ft 118kts
01-Jan-18 22:53 33.738464 -118.095761 96 4490ft 115kts
01-Jan-18 22:54 33.734565 -118.057300 95 3990ft 116kts
01-Jan-18 22:55 33.730605 -118.018714 95 3492ft 117kts
01-Jan-18 22:56 33.726582 -117.979621 95 2992ft 118kts
01-Jan-18 22:57 33.720129 -117.942402 115 2497ft 120kts
01-Jan-18 22:58 33.698648 -117.911864 123 2025ft 118kts
01-Jan-18 22:59 33.689232 -117.882608 42 1466ft 95kts
01-Jan-18 23:00 33.704181 -117.866221 133 728ft 75kts
01-Jan-18 23:01 33.689254 -117.860239 209 353ft 70kts
01-Jan-18 23:02 33.676132 -117.868508 205 59ft 14kts
01-Jan-18 23:03 33.675228 -117.870694 239 59ft 11kts

Navigation Log

Ident Type
Flight plan parsing failed, navigation log unavailable